Carthage, South Dakota
Current Conditions -  °F | °C
As of 2:55 AM on Saturday 22 Nov 2014 (Local Time) from KHON Reporting Station
Haze Haze  
Wind Chill: 20°   Ceiling: Unl
Heat Index: 28°   Visibility: 6mi
Dew Point: 25°   Wind: 8mph
Humidity: 88%   Direction: 160°SSE
Pressure: 29.76"   Gusts: NA
Location:  44.17°N, 97.72°W
Report Text: KHON 220855Z AUTO 16007KT 6SM BR CLR M02/M04 A2976 RMK AO2 SLP090 T10221039 58015
Loading
Personal Weather Stations






























Interactive Weather Map New forecast layout! Learn more

10-Day Weather Forecast

Advertisements
Track Severe Weather on mobile